createdAt,value
2023-04-25T00:01:58.883Z,11.30
2023-04-25T00:04:28.426Z,11.30
2023-04-25T00:06:59.024Z,12.83
2023-04-25T00:09:27.400Z,10.70
2023-04-25T00:11:55.714Z,6.30
2023-04-25T00:14:23.996Z,9.60
2023-04-25T00:16:52.766Z,9.40
2023-04-25T00:19:21.269Z,9.73
2023-04-25T00:21:50.269Z,8.37
2023-04-25T00:24:19.715Z,10.43
2023-04-25T00:26:48.881Z,12.53
2023-04-25T00:29:17.209Z,14.03
2023-04-25T00:31:45.421Z,11.27
2023-04-25T00:34:14.136Z,14.30
2023-04-25T00:36:42.423Z,10.30
2023-04-25T00:39:10.663Z,12.70
2023-04-25T00:41:41.839Z,13.27
2023-04-25T00:44:12.320Z,11.13
2023-04-25T00:46:41.565Z,8.57
2023-04-25T00:49:10.146Z,10.93
2023-04-25T00:51:38.921Z,12.73
2023-04-25T00:54:07.178Z,10.80
2023-04-25T00:56:35.924Z,9.20
2023-04-25T00:59:05.995Z,13.23
2023-04-25T01:01:34.528Z,8.87
2023-04-25T01:04:04.317Z,15.77
2023-04-25T01:06:33.861Z,11.63
2023-04-25T01:09:02.234Z,6.70
2023-04-25T01:11:30.811Z,8.60
2023-04-25T01:13:59.526Z,9.90
2023-04-25T01:16:29.533Z,7.23
2023-04-25T01:18:58.801Z,11.77
2023-04-25T01:21:30.843Z,6.40
2023-04-25T01:24:00.124Z,8.33
2023-04-25T01:26:29.030Z,10.03
2023-04-25T01:28:57.249Z,8.43
2023-04-25T01:31:25.759Z,6.97
2023-04-25T01:33:54.520Z,8.03
2023-04-25T01:36:23.722Z,9.60
2023-04-25T01:38:53.618Z,8.47
2023-04-25T01:41:24.353Z,12.10
2023-04-25T01:43:53.097Z,7.60
2023-04-25T01:46:21.628Z,7.83
2023-04-25T01:48:49.950Z,6.97
2023-04-25T01:51:18.897Z,7.53
2023-04-25T01:53:48.093Z,6.70
2023-04-25T01:56:17.705Z,7.73
2023-04-25T01:58:46.357Z,7.17
2023-04-25T02:01:14.671Z,6.50
2023-04-25T02:03:43.066Z,6.77
2023-04-25T02:06:11.590Z,8.07
2023-04-25T02:08:40.031Z,7.63
2023-04-25T02:11:08.203Z,8.30
2023-04-25T02:13:38.411Z,8.70
2023-04-25T02:16:07.688Z,7.53
2023-04-25T02:18:37.914Z,6.47
2023-04-25T02:21:06.692Z,9.77
2023-04-25T02:23:35.424Z,7.83
2023-04-25T02:26:03.607Z,5.47
2023-04-25T02:28:32.497Z,10.03
2023-04-25T02:31:02.509Z,6.73
2023-04-25T02:33:30.688Z,10.13
2023-04-25T02:35:58.866Z,11.17
2023-04-25T02:38:27.118Z,6.70
2023-04-25T02:40:55.343Z,6.77
2023-04-25T02:43:23.512Z,7.23
2023-04-25T02:45:51.956Z,7.03
2023-04-25T02:48:21.504Z,9.03
2023-04-25T02:50:49.725Z,8.47
2023-04-25T02:53:18.421Z,8.53
2023-04-25T02:55:46.569Z,5.27
2023-04-25T02:58:14.722Z,5.13
2023-04-25T03:00:43.074Z,5.10
2023-04-25T03:03:11.847Z,5.43
2023-04-25T03:05:41.550Z,4.33
2023-04-25T03:08:09.918Z,4.87
2023-04-25T03:10:38.601Z,4.80
2023-04-25T03:13:06.795Z,4.67
2023-04-25T03:15:35.435Z,6.67
2023-04-25T03:18:03.913Z,3.83
2023-04-25T03:20:33.803Z,5.33
2023-04-25T03:23:03.687Z,5.33
2023-04-25T03:25:32.489Z,4.50
2023-04-25T03:28:00.805Z,4.60
2023-04-25T03:30:29.306Z,4.13
2023-04-25T03:32:57.930Z,3.60
2023-04-25T03:35:26.254Z,5.30
2023-04-25T03:37:54.779Z,2.33
2023-04-25T03:40:24.922Z,3.30
2023-04-25T03:42:53.057Z,2.87
2023-04-25T03:45:21.954Z,2.20
2023-04-25T03:47:50.958Z,3.20
2023-04-25T03:50:19.292Z,3.17
2023-04-25T03:52:47.992Z,3.30
2023-04-25T03:55:16.246Z,3.77
2023-04-25T03:57:45.942Z,3.33
2023-04-25T04:00:15.471Z,2.80
2023-04-25T04:02:45.557Z,3.93
2023-04-25T04:05:14.097Z,2.00
2023-04-25T04:07:44.048Z,5.03
2023-04-25T04:10:12.765Z,3.30
2023-04-25T04:12:41.232Z,2.43
2023-04-25T04:15:13.214Z,3.17
2023-04-25T04:17:42.292Z,2.77
2023-04-25T04:20:12.182Z,3.33
2023-04-25T04:22:40.449Z,5.97
2023-04-25T04:25:09.467Z,3.57
2023-04-25T04:27:38.099Z,5.23
2023-04-25T04:30:07.749Z,6.73
2023-04-25T04:32:38.809Z,5.23
2023-04-25T04:35:08.607Z,4.20
2023-04-25T04:37:37.826Z,3.90
2023-04-25T04:40:07.898Z,4.07
2023-04-25T04:42:37.298Z,4.17
2023-04-25T04:45:06.221Z,5.13
2023-04-25T04:47:35.011Z,3.40
2023-04-25T04:50:05.865Z,6.60
2023-04-25T04:52:34.050Z,5.07
2023-04-25T04:55:02.300Z,5.43
2023-04-25T04:57:32.112Z,7.43
2023-04-25T05:00:00.568Z,5.57
2023-04-25T05:02:29.119Z,7.97
2023-04-25T05:04:58.950Z,6.77
2023-04-25T05:07:28.414Z,6.13
2023-04-25T05:09:56.553Z,7.90
2023-04-25T05:12:25.174Z,11.53
2023-04-25T05:14:53.427Z,8.13
2023-04-25T05:17:21.600Z,13.17
2023-04-25T05:19:50.362Z,14.10
2023-04-25T05:22:19.073Z,12.93
2023-04-25T05:24:49.533Z,11.63
2023-04-25T05:27:19.057Z,13.73
2023-04-25T05:29:47.899Z,12.60
2023-04-25T05:32:16.250Z,14.67
2023-04-25T05:34:44.936Z,19.13
2023-04-25T05:37:13.433Z,14.57
2023-04-25T05:39:41.518Z,15.97
2023-04-25T05:42:11.487Z,19.33
2023-04-25T05:44:39.777Z,15.77
2023-04-25T05:47:07.984Z,13.30
2023-04-25T05:49:36.652Z,14.50
2023-04-25T05:52:05.261Z,20.03
2023-04-25T05:54:33.408Z,20.87
2023-04-25T05:57:01.701Z,13.97
2023-04-25T05:59:31.870Z,23.93
2023-04-25T06:02:00.100Z,18.07
2023-04-25T06:04:29.151Z,16.53
2023-04-25T06:06:57.682Z,14.33
2023-04-25T06:09:25.809Z,20.17
2023-04-25T06:11:54.446Z,17.80
2023-04-25T06:14:22.792Z,20.07
2023-04-25T06:16:52.369Z,16.70
2023-04-25T06:19:20.746Z,21.77
2023-04-25T06:21:49.131Z,22.43
2023-04-25T06:24:17.839Z,13.67
2023-04-25T06:26:46.038Z,16.97
2023-04-25T06:29:14.490Z,17.17
2023-04-25T06:31:42.786Z,16.50
2023-04-25T06:34:12.839Z,14.63
2023-04-25T06:36:42.529Z,14.93
2023-04-25T06:39:10.955Z,17.73
2023-04-25T06:41:39.214Z,14.93
2023-04-25T06:44:07.465Z,15.43
2023-04-25T06:46:35.627Z,14.43
2023-04-25T06:49:04.194Z,11.67
2023-04-25T06:51:34.239Z,12.90
2023-04-25T06:54:02.375Z,12.20
2023-04-25T06:56:32.061Z,14.37
2023-04-25T06:59:01.952Z,12.80
2023-04-25T07:01:30.219Z,15.17
2023-04-25T07:03:59.221Z,12.67
2023-04-25T07:06:29.027Z,11.57
2023-04-25T07:08:59.198Z,9.50
2023-04-25T07:11:27.434Z,8.13
2023-04-25T07:13:56.283Z,9.57
2023-04-25T07:16:24.905Z,11.97
2023-04-25T07:18:53.236Z,14.03
2023-04-25T07:21:21.435Z,9.93
2023-04-25T07:23:49.961Z,14.07
2023-04-25T07:26:20.082Z,10.33
2023-04-25T07:28:52.057Z,10.90
2023-04-25T07:31:21.347Z,12.53
2023-04-25T07:33:49.572Z,8.87
2023-04-25T07:36:18.104Z,11.77
2023-04-25T07:38:46.614Z,10.33
2023-04-25T07:41:14.844Z,9.57
2023-04-25T07:43:44.612Z,12.50
2023-04-25T07:46:12.904Z,12.43
2023-04-25T07:48:41.058Z,10.73
2023-04-25T07:51:09.421Z,16.83
2023-04-25T07:53:38.755Z,12.60
2023-04-25T07:56:07.721Z,11.77
2023-04-25T07:58:36.019Z,13.27
2023-04-25T08:01:06.054Z,15.20
2023-04-25T08:03:34.393Z,10.10
2023-04-25T08:06:05.708Z,10.23
2023-04-25T08:08:36.338Z,16.30
2023-04-25T08:11:04.686Z,13.37
2023-04-25T08:13:32.851Z,13.73
2023-04-25T08:16:01.112Z,11.37
2023-04-25T08:18:32.027Z,17.20
2023-04-25T08:21:00.687Z,10.50
2023-04-25T08:23:28.984Z,13.40
2023-04-25T08:25:57.583Z,11.77
2023-04-25T08:28:26.246Z,15.77
2023-04-25T08:30:54.423Z,12.57
2023-04-25T08:33:23.117Z,12.77
2023-04-25T08:35:52.792Z,12.67
2023-04-25T08:38:22.384Z,10.83
2023-04-25T08:40:52.785Z,12.03
2023-04-25T08:43:22.500Z,10.90
2023-04-25T08:45:50.665Z,10.53
2023-04-25T08:48:19.742Z,16.47
2023-04-25T08:50:54.885Z,16.27
2023-04-25T08:53:28.651Z,15.70
2023-04-25T08:55:58.634Z,9.07
2023-04-25T08:58:27.012Z,12.93
2023-04-25T09:00:55.732Z,12.73
2023-04-25T09:03:24.953Z,14.17
2023-04-25T09:05:56.111Z,12.57
2023-04-25T09:08:24.697Z,9.93
2023-04-25T09:10:53.358Z,8.67
2023-04-25T09:13:28.116Z,12.50
2023-04-25T09:15:58.727Z,11.70
2023-04-25T09:18:30.740Z,9.67
2023-04-25T09:21:13.715Z,15.33
2023-04-25T09:23:44.109Z,9.90
2023-04-25T09:26:16.199Z,7.33
2023-04-25T09:28:45.146Z,9.23
2023-04-25T09:31:13.678Z,8.97
2023-04-25T09:33:43.409Z,8.90
2023-04-25T09:36:13.761Z,8.40
2023-04-25T09:38:46.895Z,8.03
2023-04-25T09:41:15.203Z,10.60
2023-04-25T09:43:48.253Z,10.80
2023-04-25T09:46:16.551Z,10.80
2023-04-25T09:48:52.043Z,11.83
2023-04-25T09:51:21.692Z,10.17
2023-04-25T09:53:51.891Z,10.37
2023-04-25T09:56:22.243Z,12.53
2023-04-25T09:58:52.645Z,10.00
2023-04-25T10:01:21.532Z,10.80
2023-04-25T10:03:52.531Z,8.90
2023-04-25T10:06:24.938Z,11.77
2023-04-25T10:08:56.991Z,9.87
2023-04-25T10:11:28.317Z,19.03
2023-04-25T10:13:58.103Z,9.00
2023-04-25T10:16:27.755Z,9.87
2023-04-25T10:18:56.647Z,9.10
2023-04-25T10:21:29.381Z,11.50
2023-04-25T10:23:57.760Z,12.67
2023-04-25T10:26:27.394Z,11.30
2023-04-25T10:29:01.019Z,10.80
2023-04-25T10:31:31.877Z,8.50
2023-04-25T10:34:01.514Z,9.83
2023-04-25T10:36:34.414Z,9.47
2023-04-25T10:39:09.293Z,7.57
2023-04-25T10:41:49.770Z,9.43
2023-04-25T10:44:18.018Z,9.37
2023-04-25T10:46:47.959Z,7.63
2023-04-25T10:49:32.466Z,6.73
2023-04-25T10:52:26.509Z,6.97
2023-04-25T10:54:57.480Z,6.27
2023-04-25T10:57:33.371Z,7.93
2023-04-25T11:00:10.950Z,6.47
2023-04-25T11:02:48.099Z,7.10
2023-04-25T11:05:27.093Z,7.67
2023-04-25T11:08:07.251Z,6.47
2023-04-25T11:10:37.706Z,6.00
2023-04-25T11:13:06.200Z,4.37
2023-04-25T11:15:34.538Z,4.93
2023-04-25T11:18:03.434Z,5.53
2023-04-25T11:20:31.920Z,5.97
2023-04-25T11:25:38.441Z,6.40
2023-04-25T11:28:07.142Z,5.53
2023-04-25T11:30:35.617Z,8.03
2023-04-25T11:33:05.005Z,6.87
2023-04-25T11:35:34.692Z,7.03
2023-04-25T11:38:04.521Z,6.87
2023-04-25T11:40:33.738Z,7.80
2023-04-25T11:43:03.166Z,7.30
2023-04-25T11:45:32.113Z,7.10
2023-04-25T11:48:00.854Z,9.20
2023-04-25T11:50:30.792Z,7.97
2023-04-25T11:52:59.762Z,7.03
2023-04-25T11:55:33.345Z,7.03
2023-04-25T11:58:03.315Z,7.47
2023-04-25T12:00:31.548Z,9.13
2023-04-25T12:03:01.588Z,9.47
2023-04-25T12:05:35.018Z,9.60
2023-04-25T12:08:14.555Z,10.17
2023-04-25T12:10:47.227Z,9.00
2023-04-25T12:13:23.616Z,8.57
2023-04-25T12:15:52.398Z,10.00
2023-04-25T12:18:22.906Z,8.73
2023-04-25T12:20:51.793Z,8.17
2023-04-25T12:23:28.535Z,7.33
2023-04-25T12:25:59.307Z,8.23
2023-04-25T12:28:29.261Z,9.93
2023-04-25T12:31:03.210Z,6.97
2023-04-25T12:33:33.532Z,7.13
2023-04-25T12:36:06.422Z,8.83
2023-04-25T12:38:38.929Z,9.70
2023-04-25T12:41:09.030Z,6.47
2023-04-25T12:43:37.440Z,6.70
2023-04-25T12:46:05.773Z,7.23
2023-04-25T12:48:34.029Z,7.97
2023-04-25T12:51:02.522Z,7.23
2023-04-25T12:53:30.865Z,6.30
2023-04-25T12:55:59.399Z,7.63
2023-04-25T12:58:29.332Z,7.13
2023-04-25T13:00:57.563Z,5.73
2023-04-25T13:03:27.655Z,6.17
2023-04-25T13:05:56.098Z,5.03
2023-04-25T13:08:24.387Z,7.20
2023-04-25T13:10:52.559Z,4.57
2023-04-25T13:13:21.369Z,5.03
2023-04-25T13:15:50.979Z,4.43
2023-04-25T13:18:19.394Z,4.63
2023-04-25T13:20:48.298Z,6.10
2023-04-25T13:23:16.396Z,3.83
2023-04-25T13:25:44.482Z,5.60
2023-04-25T13:28:12.946Z,5.97
2023-04-25T13:30:41.258Z,6.27
2023-04-25T13:33:11.433Z,10.90
2023-04-25T13:35:40.198Z,14.67
2023-04-25T13:38:08.808Z,6.00
2023-04-25T13:40:37.417Z,10.50
2023-04-25T13:43:07.450Z,4.40
2023-04-25T13:45:35.800Z,6.23
2023-04-25T13:48:04.150Z,6.67
2023-04-25T13:50:34.018Z,8.83
2023-04-25T13:53:02.188Z,6.17
2023-04-25T13:55:31.531Z,6.10
2023-04-25T13:58:00.416Z,6.07
2023-04-25T14:00:28.622Z,7.00
2023-04-25T14:02:56.890Z,7.83
2023-04-25T14:05:25.773Z,12.47
2023-04-25T14:07:55.341Z,8.23
2023-04-25T14:10:23.861Z,8.53
2023-04-25T14:12:52.253Z,10.80
2023-04-25T14:15:21.183Z,12.17
2023-04-25T14:17:49.770Z,8.97
2023-04-25T14:20:21.279Z,5.53
2023-04-25T14:22:49.703Z,7.20
2023-04-25T14:25:19.372Z,18.27
2023-04-25T14:27:50.743Z,14.50
2023-04-25T14:30:19.935Z,12.27
2023-04-25T14:32:48.751Z,12.20
2023-04-25T14:35:17.190Z,8.60
2023-04-25T14:37:45.550Z,7.30
2023-04-25T14:40:16.241Z,6.67
2023-04-25T14:42:46.368Z,10.47
2023-04-25T14:45:14.658Z,10.03
2023-04-25T14:47:43.350Z,9.53
2023-04-25T14:50:12.827Z,9.17
2023-04-25T14:52:41.686Z,7.87
2023-04-25T14:55:11.031Z,13.87
2023-04-25T14:57:40.325Z,7.50
2023-04-25T15:00:13.148Z,8.63
2023-04-25T15:02:41.465Z,8.17
2023-04-25T15:05:11.188Z,7.97
2023-04-25T15:07:40.401Z,7.83
2023-04-25T15:10:14.465Z,8.97
2023-04-25T15:12:42.775Z,6.20
2023-04-25T15:15:17.534Z,11.67
2023-04-25T15:17:56.512Z,7.57
2023-04-25T15:20:26.683Z,11.47
2023-04-25T15:22:55.060Z,7.83
2023-04-25T15:25:23.556Z,10.33
2023-04-25T15:27:52.715Z,10.00
2023-04-25T15:30:22.676Z,7.70
2023-04-25T15:32:50.960Z,10.90
2023-04-25T15:35:19.287Z,8.87
2023-04-25T15:37:47.671Z,7.70
2023-04-25T15:40:17.593Z,11.53
2023-04-25T15:42:48.518Z,7.10
2023-04-25T15:45:17.967Z,6.60
2023-04-25T15:47:48.282Z,5.47
2023-04-25T15:50:16.850Z,6.47
2023-04-25T15:52:45.287Z,5.20
2023-04-25T15:55:14.551Z,6.03
2023-04-25T15:57:42.764Z,6.23
2023-04-25T16:00:13.264Z,5.47
2023-04-25T16:02:43.467Z,5.17
2023-04-25T16:05:14.685Z,6.37
2023-04-25T16:07:45.016Z,8.83
2023-04-25T16:10:14.691Z,7.63
2023-04-25T16:12:42.921Z,10.57
2023-04-25T16:15:11.636Z,12.83
2023-04-25T16:17:40.302Z,12.87
2023-04-25T16:20:10.827Z,11.70
2023-04-25T16:22:41.791Z,14.87
2023-04-25T16:25:10.817Z,13.13
2023-04-25T16:27:39.632Z,15.13
2023-04-25T16:30:10.261Z,13.73
2023-04-25T16:32:39.901Z,12.87
2023-04-25T16:35:09.633Z,15.10
2023-04-25T16:37:40.210Z,13.73
2023-04-25T16:40:10.160Z,16.93
2023-04-25T16:42:38.842Z,14.50
2023-04-25T16:45:07.907Z,14.50
2023-04-25T16:47:36.528Z,18.20
2023-04-25T16:50:05.418Z,16.00
2023-04-25T16:52:33.714Z,12.13
2023-04-25T16:55:03.251Z,13.90
2023-04-25T16:57:31.921Z,13.60
2023-04-25T17:00:00.347Z,13.23
2023-04-25T17:02:28.908Z,13.10
2023-04-25T17:04:57.767Z,13.33
2023-04-25T17:07:25.883Z,14.23
2023-04-25T17:09:54.126Z,14.67
2023-04-25T17:12:23.994Z,14.47
2023-04-25T17:14:52.502Z,13.53
2023-04-25T17:17:21.450Z,11.93
2023-04-25T17:19:49.787Z,12.70
2023-04-25T17:22:18.412Z,14.27
2023-04-25T17:24:46.599Z,11.03
2023-04-25T17:27:14.878Z,13.10
2023-04-25T17:29:44.652Z,10.53
2023-04-25T17:32:13.077Z,14.97
2023-04-25T17:34:42.983Z,15.50
2023-04-25T17:37:15.618Z,15.90
2023-04-25T17:39:44.629Z,15.67
2023-04-25T17:42:14.575Z,12.33
2023-04-25T17:44:44.532Z,17.63
2023-04-25T17:47:13.114Z,18.37
2023-04-25T17:49:41.498Z,17.10
2023-04-25T17:52:10.390Z,19.93
2023-04-25T17:54:38.584Z,18.73
2023-04-25T17:57:07.051Z,16.83
2023-04-25T17:59:35.265Z,22.37
2023-04-25T18:02:05.324Z,20.83
2023-04-25T18:04:33.450Z,24.53
2023-04-25T18:07:01.975Z,29.97
2023-04-25T18:09:32.336Z,27.70
2023-04-25T18:12:00.784Z,23.83
2023-04-25T18:14:29.095Z,24.10
2023-04-25T18:16:57.803Z,29.43
2023-04-25T18:19:27.372Z,23.37
2023-04-25T18:21:57.319Z,24.87
2023-04-25T18:24:27.277Z,22.30
2023-04-25T18:26:56.905Z,22.20
2023-04-25T18:29:33.051Z,22.13
2023-04-25T18:32:04.440Z,29.43
2023-04-25T18:34:34.627Z,28.30
2023-04-25T18:37:03.313Z,28.07
2023-04-25T18:39:31.461Z,29.27
2023-04-25T18:42:05.495Z,32.00
2023-04-25T18:44:39.438Z,28.40
2023-04-25T18:47:08.068Z,27.43
2023-04-25T18:49:38.613Z,23.80
2023-04-25T18:52:10.577Z,24.50
2023-04-25T18:54:39.318Z,24.53
2023-04-25T18:57:07.689Z,22.40
2023-04-25T18:59:36.506Z,20.63
2023-04-25T19:02:05.767Z,24.23
2023-04-25T19:04:34.420Z,20.23
2023-04-25T19:07:04.600Z,19.83
2023-04-25T19:09:32.733Z,17.07
2023-04-25T19:12:01.818Z,23.07
2023-04-25T19:14:30.441Z,20.47
2023-04-25T19:16:59.507Z,25.17
2023-04-25T19:19:28.418Z,27.00
2023-04-25T19:21:56.977Z,22.53
2023-04-25T19:24:27.102Z,22.03
2023-04-25T19:26:55.263Z,25.40
2023-04-25T19:29:24.163Z,19.27
2023-04-25T19:31:52.422Z,21.33
2023-04-25T19:34:20.698Z,25.43
2023-04-25T19:36:52.665Z,26.53
2023-04-25T19:39:21.021Z,20.03
2023-04-25T19:41:50.631Z,19.27
2023-04-25T19:44:19.261Z,21.60
2023-04-25T19:46:49.324Z,21.53
2023-04-25T19:49:17.633Z,22.43
2023-04-25T19:51:46.405Z,23.73
2023-04-25T19:54:15.081Z,20.80
2023-04-25T19:56:43.490Z,20.13
2023-04-25T19:59:13.760Z,23.40
2023-04-25T20:01:42.115Z,20.80
2023-04-25T20:04:10.681Z,20.70
2023-04-25T20:06:39.155Z,20.57
2023-04-25T20:09:09.483Z,23.50
2023-04-25T20:11:37.746Z,18.83
2023-04-25T20:14:06.296Z,26.57
2023-04-25T20:16:36.317Z,25.37
2023-04-25T20:19:05.203Z,18.73
2023-04-25T20:21:34.464Z,27.10
2023-04-25T20:24:03.322Z,26.60
2023-04-25T20:26:33.949Z,26.90
2023-04-25T20:29:03.399Z,28.43
2023-04-25T20:31:32.507Z,30.23
2023-04-25T20:34:02.190Z,26.17
2023-04-25T20:36:31.807Z,31.13
2023-04-25T20:39:00.084Z,23.00
2023-04-25T20:41:28.300Z,31.17
2023-04-25T20:43:56.957Z,26.67
2023-04-25T20:46:25.473Z,26.30
2023-04-25T20:48:53.829Z,32.20
2023-04-25T20:51:24.246Z,28.00
2023-04-25T20:53:52.551Z,29.10
2023-04-25T20:56:20.844Z,30.70
2023-04-25T20:58:49.704Z,29.97
2023-04-25T21:01:18.695Z,28.13
2023-04-25T21:03:48.382Z,29.80
2023-04-25T21:06:16.887Z,28.20
2023-04-25T21:08:46.909Z,21.20
2023-04-25T21:11:15.575Z,26.40
2023-04-25T21:13:44.283Z,29.30
2023-04-25T21:16:13.019Z,28.50
2023-04-25T21:18:41.123Z,23.97
2023-04-25T21:21:09.303Z,28.23
2023-04-25T21:23:37.891Z,31.43
2023-04-25T21:26:07.433Z,23.53
2023-04-25T21:28:35.800Z,25.37
2023-04-25T21:31:04.757Z,27.03
2023-04-25T21:33:33.019Z,16.87
2023-04-25T21:36:01.520Z,24.23
2023-04-25T21:38:29.762Z,25.73
2023-04-25T21:40:57.965Z,21.53
2023-04-25T21:43:27.471Z,22.93
2023-04-25T21:46:11.501Z,28.53
2023-04-25T21:48:44.743Z,28.23
2023-04-25T21:51:13.350Z,27.70
2023-04-25T21:53:42.256Z,27.57
2023-04-25T21:56:11.793Z,30.77
2023-04-25T21:58:41.535Z,21.00
2023-04-25T22:01:09.903Z,20.83
2023-04-25T22:03:38.779Z,19.30
2023-04-25T22:06:07.253Z,21.47
2023-04-25T22:08:35.444Z,20.27
2023-04-25T22:11:07.004Z,21.47
2023-04-25T22:13:35.901Z,24.40
2023-04-25T22:16:06.295Z,25.23
2023-04-25T22:18:34.761Z,23.60
2023-04-25T22:21:02.912Z,31.20
2023-04-25T22:23:31.654Z,34.10
2023-04-25T22:26:00.028Z,38.80
2023-04-25T22:28:28.183Z,32.47
2023-04-25T22:30:56.652Z,28.70
2023-04-25T22:33:26.702Z,30.10
2023-04-25T22:35:54.916Z,29.37
2023-04-25T22:38:23.162Z,36.53
2023-04-25T22:40:51.683Z,39.23
2023-04-25T22:43:19.926Z,44.03
2023-04-25T22:45:48.731Z,42.67
2023-04-25T22:48:17.407Z,41.53
2023-04-25T22:50:46.948Z,38.97
2023-04-25T22:53:15.205Z,36.63
2023-04-25T22:55:44.683Z,32.77
2023-04-25T22:58:13.514Z,28.77
2023-04-25T23:00:42.342Z,43.53
2023-04-25T23:03:11.029Z,29.93
2023-04-25T23:05:39.391Z,30.90
2023-04-25T23:08:09.863Z,34.97
2023-04-25T23:10:38.565Z,27.27
2023-04-25T23:13:06.754Z,25.23
2023-04-25T23:15:34.980Z,48.50
2023-04-25T23:18:03.500Z,33.13
2023-04-25T23:20:32.328Z,31.80
2023-04-25T23:23:00.791Z,29.50
2023-04-25T23:25:30.519Z,27.90
2023-04-25T23:27:58.699Z,28.03
2023-04-25T23:30:27.212Z,42.57
2023-04-25T23:32:55.904Z,34.30
2023-04-25T23:35:24.255Z,35.17
2023-04-25T23:37:53.041Z,30.17
2023-04-25T23:40:21.696Z,36.87
2023-04-25T23:42:51.239Z,34.03
2023-04-25T23:45:20.958Z,30.93
2023-04-25T23:47:49.223Z,40.90
2023-04-25T23:50:17.353Z,29.03
2023-04-25T23:52:45.661Z,42.77
2023-04-25T23:55:14.370Z,29.87
2023-04-25T23:57:44.581Z,58.20
